createdAt,value
2023-04-22T00:01:26.128Z,18.80
2023-04-22T00:03:53.075Z,18.80
2023-04-22T00:06:20.257Z,18.70
2023-04-22T00:08:46.965Z,18.70
2023-04-22T00:11:13.910Z,18.80
2023-04-22T00:13:40.929Z,18.70
2023-04-22T00:16:07.761Z,18.70
2023-04-22T00:18:35.918Z,18.70
2023-04-22T00:21:03.173Z,18.70
2023-04-22T00:23:29.835Z,18.70
2023-04-22T00:25:56.550Z,18.70
2023-04-22T00:28:23.355Z,18.70
2023-04-22T00:30:50.110Z,18.70
2023-04-22T00:33:17.002Z,18.70
2023-04-22T00:35:45.409Z,18.70
2023-04-22T00:38:12.542Z,18.70
2023-04-22T00:40:39.443Z,18.70
2023-04-22T00:43:06.429Z,18.60
2023-04-22T00:45:34.016Z,18.60
2023-04-22T00:48:01.574Z,18.60
2023-04-22T00:50:28.558Z,18.70
2023-04-22T00:52:55.240Z,18.70
2023-04-22T00:55:22.114Z,18.60
2023-04-22T00:57:50.025Z,18.60
2023-04-22T01:00:17.313Z,18.60
2023-04-22T01:02:44.413Z,18.60
2023-04-22T01:05:11.528Z,18.60
2023-04-22T01:07:38.313Z,18.60
2023-04-22T01:10:05.864Z,18.60
2023-04-22T01:12:32.947Z,18.60
2023-04-22T01:15:00.680Z,18.60
2023-04-22T01:17:29.258Z,18.60
2023-04-22T01:19:58.785Z,18.60
2023-04-22T01:22:30.817Z,18.60
2023-04-22T01:24:57.639Z,18.60
2023-04-22T01:27:24.409Z,18.60
2023-04-22T01:29:52.977Z,18.60
2023-04-22T01:32:20.100Z,18.60
2023-04-22T01:34:46.874Z,18.60
2023-04-22T01:37:13.575Z,18.60
2023-04-22T01:39:40.704Z,18.60
2023-04-22T01:42:08.305Z,18.50
2023-04-22T01:44:35.095Z,18.50
2023-04-22T01:47:01.911Z,18.50
2023-04-22T01:49:28.697Z,18.50
2023-04-22T01:51:55.465Z,18.50
2023-04-22T01:54:22.361Z,18.50
2023-04-22T01:56:50.572Z,18.50
2023-04-22T01:59:17.372Z,18.50
2023-04-22T02:01:44.303Z,18.50
2023-04-22T02:04:11.278Z,18.50
2023-04-22T02:06:38.198Z,18.50
2023-04-22T02:09:05.081Z,18.50
2023-04-22T02:11:31.977Z,18.50
2023-04-22T02:13:58.696Z,18.50
2023-04-22T02:16:25.840Z,18.40
2023-04-22T02:18:53.043Z,18.50
2023-04-22T02:21:19.936Z,18.50
2023-04-22T02:23:46.718Z,18.50
2023-04-22T02:26:13.509Z,18.50
2023-04-22T02:28:41.568Z,18.50
2023-04-22T02:31:08.507Z,18.50
2023-04-22T02:33:36.399Z,18.50
2023-04-22T02:36:03.336Z,18.50
2023-04-22T02:38:30.122Z,18.50
2023-04-22T02:40:57.030Z,18.40
2023-04-22T02:43:23.781Z,18.40
2023-04-22T02:45:50.655Z,18.40
2023-04-22T02:48:17.513Z,18.40
2023-04-22T02:50:44.309Z,18.40
2023-04-22T02:53:11.106Z,18.40
2023-04-22T02:55:39.241Z,18.40
2023-04-22T02:58:05.925Z,18.40
2023-04-22T03:00:32.970Z,18.40
2023-04-22T03:02:59.750Z,18.40
2023-04-22T03:05:26.732Z,18.40
2023-04-22T03:07:53.937Z,18.40
2023-04-22T03:10:20.858Z,18.40
2023-04-22T03:12:48.278Z,18.40
2023-04-22T03:15:15.318Z,18.40
2023-04-22T03:17:42.053Z,18.40
2023-04-22T03:20:09.169Z,18.40
2023-04-22T03:22:36.158Z,18.40
2023-04-22T03:25:03.609Z,18.40
2023-04-22T03:27:30.496Z,18.40
2023-04-22T03:29:57.387Z,18.40
2023-04-22T03:32:24.293Z,18.40
2023-04-22T03:34:51.170Z,18.40
2023-04-22T03:37:18.074Z,18.40
2023-04-22T03:39:44.903Z,18.40
2023-04-22T03:42:12.584Z,18.40
2023-04-22T03:44:39.303Z,18.40
2023-04-22T03:47:06.370Z,18.40
2023-04-22T03:49:33.455Z,18.40
2023-04-22T03:52:00.226Z,18.40
2023-04-22T03:54:27.007Z,18.40
2023-04-22T03:56:53.883Z,18.40
2023-04-22T03:59:21.257Z,18.30
2023-04-22T04:01:48.322Z,18.30
2023-04-22T04:04:15.564Z,18.40
2023-04-22T04:06:42.501Z,18.30
2023-04-22T04:09:09.318Z,18.30
2023-04-22T04:11:35.998Z,18.30
2023-04-22T04:14:03.777Z,18.30
2023-04-22T04:16:30.556Z,18.30
2023-04-22T04:18:57.385Z,18.30
2023-04-22T04:21:24.204Z,18.30
2023-04-22T04:23:50.845Z,18.30
2023-04-22T04:26:18.123Z,18.30
2023-04-22T04:28:45.175Z,18.30
2023-04-22T04:31:11.892Z,18.30
2023-04-22T04:33:39.162Z,18.30
2023-04-22T04:36:06.276Z,18.30
2023-04-22T04:38:34.277Z,18.30
2023-04-22T04:41:01.661Z,18.30
2023-04-22T04:43:29.516Z,18.30
2023-04-22T04:45:56.318Z,18.30
2023-04-22T04:48:25.020Z,18.30
2023-04-22T04:50:54.285Z,18.30
2023-04-22T04:53:23.869Z,18.30
2023-04-22T04:55:50.660Z,18.30
2023-04-22T04:58:17.484Z,18.30
2023-04-22T05:00:44.192Z,18.30
2023-04-22T05:03:10.998Z,18.30
2023-04-22T05:05:37.853Z,18.30
2023-04-22T05:08:04.928Z,18.30
2023-04-22T05:10:31.760Z,18.30
2023-04-22T05:12:58.501Z,18.30
2023-04-22T05:15:25.272Z,18.30
2023-04-22T05:17:52.092Z,18.30
2023-04-22T05:20:18.950Z,18.30
2023-04-22T05:22:45.963Z,18.40
2023-04-22T05:25:12.702Z,18.40
2023-04-22T05:27:40.559Z,18.50
2023-04-22T05:30:08.037Z,18.60
2023-04-22T05:32:34.832Z,18.90
2023-04-22T05:35:01.918Z,19.20
2023-04-22T05:37:28.709Z,19.50
2023-04-22T05:39:55.458Z,19.70
2023-04-22T05:42:22.236Z,20.00
2023-04-22T05:44:48.976Z,20.10
2023-04-22T05:47:15.984Z,20.30
2023-04-22T05:49:42.914Z,20.40
2023-04-22T05:52:09.734Z,20.50
2023-04-22T05:54:37.151Z,20.50
2023-04-22T05:57:04.196Z,20.60
2023-04-22T05:59:31.062Z,20.80
2023-04-22T06:01:57.766Z,20.80
2023-04-22T06:04:24.838Z,20.90
2023-04-22T06:06:53.956Z,20.90
2023-04-22T06:09:21.483Z,20.90
2023-04-22T06:11:48.789Z,20.90
2023-04-22T06:14:15.508Z,20.80
2023-04-22T06:16:42.223Z,20.70
2023-04-22T06:19:09.029Z,20.40
2023-04-22T06:21:38.188Z,20.20
2023-04-22T06:24:06.129Z,20.10
2023-04-22T06:26:33.077Z,19.90
2023-04-22T06:29:00.280Z,19.90
2023-04-22T06:31:27.026Z,19.80
2023-04-22T06:33:53.776Z,19.90
2023-04-22T06:36:20.415Z,20.20
2023-04-22T06:38:47.122Z,20.60
2023-04-22T06:41:13.984Z,20.40
2023-04-22T06:43:40.698Z,19.60
2023-04-22T06:46:07.495Z,19.50
2023-04-22T06:48:34.500Z,19.70
2023-04-22T06:51:02.069Z,19.70
2023-04-22T06:53:28.822Z,19.80
2023-04-22T06:55:55.724Z,19.80
2023-04-22T06:58:22.591Z,19.70
2023-04-22T07:00:49.366Z,19.70
2023-04-22T07:03:16.331Z,19.70
2023-04-22T07:05:43.223Z,19.70
2023-04-22T07:08:09.971Z,19.70
2023-04-22T07:10:36.878Z,19.70
2023-04-22T07:13:03.570Z,19.70
2023-04-22T07:15:30.727Z,19.70
2023-04-22T07:17:57.599Z,19.60
2023-04-22T07:20:24.487Z,19.60
2023-04-22T07:22:51.197Z,19.60
2023-04-22T07:25:18.073Z,19.60
2023-04-22T07:27:44.782Z,19.60
2023-04-22T07:30:11.849Z,19.60
2023-04-22T07:32:38.690Z,19.70
2023-04-22T07:35:06.037Z,19.50
2023-04-22T07:37:32.742Z,19.20
2023-04-22T07:39:59.580Z,18.90
2023-04-22T07:42:26.304Z,18.80
2023-04-22T07:44:53.033Z,18.90
2023-04-22T07:47:19.861Z,18.80
2023-04-22T07:49:46.650Z,18.70
2023-04-22T07:52:13.381Z,18.60
2023-04-22T07:54:40.130Z,18.50
2023-04-22T07:57:06.808Z,18.60
2023-04-22T07:59:33.468Z,18.80
2023-04-22T08:02:00.195Z,18.80
2023-04-22T08:04:27.164Z,18.80
2023-04-22T08:06:55.024Z,18.90
2023-04-22T08:09:21.769Z,18.90
2023-04-22T08:11:48.532Z,18.80
2023-04-22T08:14:15.325Z,18.80
2023-04-22T08:16:42.252Z,18.80
2023-04-22T08:19:08.989Z,18.80
2023-04-22T08:21:37.335Z,18.80
2023-04-22T08:24:04.310Z,18.90
2023-04-22T08:26:31.154Z,18.90
2023-04-22T08:28:57.929Z,18.90
2023-04-22T08:31:24.815Z,19.00
2023-04-22T08:33:51.588Z,19.00
2023-04-22T08:36:18.829Z,19.00
2023-04-22T08:38:46.897Z,19.00
2023-04-22T08:41:15.350Z,19.10
2023-04-22T08:43:42.764Z,19.10
2023-04-22T08:46:09.607Z,18.80
2023-04-22T08:48:36.877Z,19.10
2023-04-22T08:51:04.075Z,19.10
2023-04-22T08:53:31.287Z,18.80
2023-04-22T08:55:58.357Z,18.50
2023-04-22T08:58:25.192Z,18.30
2023-04-22T09:00:52.465Z,18.30
2023-04-22T09:03:19.683Z,18.30
2023-04-22T09:05:46.999Z,18.30
2023-04-22T09:08:13.994Z,18.30
2023-04-22T09:10:41.104Z,18.30
2023-04-22T09:13:07.825Z,18.40
2023-04-22T09:15:34.700Z,18.40
2023-04-22T09:18:02.460Z,18.40
2023-04-22T09:20:29.773Z,18.40
2023-04-22T09:22:57.589Z,18.30
2023-04-22T09:25:25.874Z,18.30
2023-04-22T09:27:53.909Z,18.30
2023-04-22T09:30:29.460Z,18.30
2023-04-22T09:32:57.027Z,18.30
2023-04-22T09:35:27.993Z,18.40
2023-04-22T09:37:55.137Z,18.40
2023-04-22T09:40:22.217Z,18.40
2023-04-22T09:42:53.124Z,18.50
2023-04-22T09:45:33.606Z,18.50
2023-04-22T09:48:02.196Z,18.50
2023-04-22T09:50:29.256Z,18.60
2023-04-22T09:52:57.534Z,18.60
2023-04-22T09:55:25.816Z,18.70
2023-04-22T09:57:56.488Z,18.80
2023-04-22T10:00:28.981Z,18.80
2023-04-22T10:02:55.798Z,18.80
2023-04-22T10:05:22.647Z,18.80
2023-04-22T10:07:49.674Z,18.90
2023-04-22T10:10:16.459Z,18.90
2023-04-22T10:12:43.269Z,18.90
2023-04-22T10:15:10.104Z,19.00
2023-04-22T10:17:38.399Z,19.00
2023-04-22T10:20:13.720Z,18.90
2023-04-22T10:22:42.011Z,18.80
2023-04-22T10:25:23.172Z,18.80
2023-04-22T10:27:54.387Z,18.90
2023-04-22T10:30:28.880Z,19.00
2023-04-22T10:32:56.060Z,19.00
2023-04-22T10:35:31.842Z,19.00
2023-04-22T10:37:58.549Z,19.00
2023-04-22T10:40:25.611Z,19.00
2023-04-22T10:42:53.266Z,19.00
2023-04-22T10:45:24.005Z,19.00
2023-04-22T10:47:50.785Z,18.90
2023-04-22T10:50:17.696Z,18.90
2023-04-22T10:52:47.115Z,19.00
2023-04-22T10:55:13.850Z,18.90
2023-04-22T10:57:42.548Z,18.90
2023-04-22T11:00:18.310Z,19.00
2023-04-22T11:02:46.884Z,19.00
2023-04-22T11:05:27.502Z,19.10
2023-04-22T11:07:55.969Z,19.10
2023-04-22T11:10:31.935Z,19.10
2023-04-22T11:12:59.124Z,19.10
2023-04-22T11:15:26.265Z,19.10
2023-04-22T11:17:53.855Z,19.10
2023-04-22T11:20:20.768Z,19.10
2023-04-22T11:22:49.274Z,19.00
2023-04-22T11:25:16.183Z,19.10
2023-04-22T11:27:43.936Z,19.10
2023-04-22T11:30:11.152Z,19.00
2023-04-22T11:32:39.170Z,19.00
2023-04-22T11:35:07.647Z,19.00
2023-04-22T11:37:41.488Z,19.00
2023-04-22T11:40:29.066Z,19.00
2023-04-22T11:42:58.140Z,19.00
2023-04-22T11:45:25.892Z,19.00
2023-04-22T11:47:53.061Z,19.00
2023-04-22T11:50:24.095Z,19.00
2023-04-22T11:52:52.797Z,19.00
2023-04-22T11:55:33.891Z,19.00
2023-04-22T11:58:02.138Z,19.00
2023-04-22T12:00:31.606Z,19.00
2023-04-22T12:03:00.773Z,19.00
2023-04-22T12:05:46.287Z,19.10
2023-04-22T12:08:17.251Z,19.00
2023-04-22T12:11:07.109Z,19.10
2023-04-22T12:13:43.435Z,19.20
2023-04-22T12:16:14.437Z,19.20
2023-04-22T12:18:51.785Z,19.20
2023-04-22T12:21:25.026Z,19.20
2023-04-22T12:23:56.210Z,19.30
2023-04-22T12:26:26.388Z,19.30
2023-04-22T12:28:54.455Z,19.30
2023-04-22T12:31:21.812Z,19.30
2023-04-22T12:33:49.059Z,19.30
2023-04-22T12:36:16.143Z,19.30
2023-04-22T12:38:42.910Z,19.30
2023-04-22T12:41:09.784Z,19.30
2023-04-22T12:43:37.013Z,19.30
2023-04-22T12:46:04.425Z,19.30
2023-04-22T12:48:31.693Z,19.30
2023-04-22T12:50:58.721Z,19.30
2023-04-22T12:53:27.015Z,19.30
2023-04-22T12:55:53.907Z,19.30
2023-04-22T12:58:20.664Z,19.40
2023-04-22T13:00:47.519Z,19.30
2023-04-22T13:03:14.798Z,19.30
2023-04-22T13:05:41.845Z,19.30
2023-04-22T13:08:08.583Z,19.30
2023-04-22T13:10:35.552Z,19.30
2023-04-22T13:13:17.692Z,19.30
2023-04-22T13:15:47.226Z,19.30
2023-04-22T13:18:15.112Z,19.20
2023-04-22T13:20:42.739Z,19.20
2023-04-22T13:23:10.598Z,19.20
2023-04-22T13:25:37.744Z,19.20
2023-04-22T13:28:04.498Z,19.30
2023-04-22T13:30:31.305Z,19.30
2023-04-22T13:32:58.046Z,19.30
2023-04-22T13:35:24.908Z,19.30
2023-04-22T13:37:51.772Z,19.30
2023-04-22T13:40:18.915Z,19.20
2023-04-22T13:42:45.660Z,19.20
2023-04-22T13:45:12.552Z,19.30
2023-04-22T13:47:39.326Z,19.20
2023-04-22T13:50:06.555Z,19.30
2023-04-22T13:52:34.122Z,19.30
2023-04-22T13:55:01.004Z,19.20
2023-04-22T13:57:27.794Z,19.20
2023-04-22T13:59:54.742Z,19.20
2023-04-22T14:02:21.646Z,19.20
2023-04-22T14:04:48.424Z,19.20
2023-04-22T14:07:15.451Z,19.20
2023-04-22T14:09:42.423Z,19.20
2023-04-22T14:12:11.189Z,19.20
2023-04-22T14:14:38.025Z,19.10
2023-04-22T14:17:04.844Z,19.10
2023-04-22T14:19:31.780Z,19.20
2023-04-22T14:21:58.693Z,19.10
2023-04-22T14:24:25.773Z,19.10
2023-04-22T14:26:52.934Z,19.10
2023-04-22T14:29:20.243Z,19.10
2023-04-22T14:31:47.011Z,19.10
2023-04-22T14:34:13.758Z,19.10
2023-04-22T14:36:40.591Z,19.00
2023-04-22T14:39:07.654Z,19.00
2023-04-22T14:41:34.651Z,19.00
2023-04-22T14:44:01.479Z,19.00
2023-04-22T14:46:28.318Z,19.00
2023-04-22T14:48:55.127Z,19.00
2023-04-22T14:51:21.990Z,19.00
2023-04-22T14:53:48.994Z,19.00
2023-04-22T14:56:15.736Z,19.00
2023-04-22T14:58:42.611Z,19.00
2023-04-22T15:01:09.407Z,19.00
2023-04-22T15:03:36.303Z,19.00
2023-04-22T15:06:03.284Z,18.90
2023-04-22T15:08:30.105Z,19.00
2023-04-22T15:10:56.917Z,19.00
2023-04-22T15:13:23.842Z,19.00
2023-04-22T15:15:50.897Z,18.90
2023-04-22T15:18:17.771Z,18.80
2023-04-22T15:20:44.797Z,18.80
2023-04-22T15:23:11.544Z,18.80
2023-04-22T15:25:38.292Z,18.80
2023-04-22T15:28:05.219Z,18.80
2023-04-22T15:30:31.952Z,18.70
2023-04-22T15:32:58.802Z,18.80
2023-04-22T15:35:25.887Z,18.70
2023-04-22T15:37:52.940Z,18.70
2023-04-22T15:40:19.763Z,18.70
2023-04-22T15:42:46.542Z,18.70
2023-04-22T15:45:13.380Z,18.70
2023-04-22T15:47:40.753Z,18.70
2023-04-22T15:50:09.409Z,18.70
2023-04-22T15:52:37.731Z,18.70
2023-04-22T15:55:08.066Z,18.70
2023-04-22T15:57:35.554Z,18.70
2023-04-22T16:00:12.661Z,18.60
2023-04-22T16:02:40.738Z,18.60
2023-04-22T16:05:07.846Z,18.60
2023-04-22T16:07:34.906Z,18.70
2023-04-22T16:10:01.885Z,18.60
2023-04-22T16:12:28.689Z,18.60
2023-04-22T16:14:55.397Z,18.70
2023-04-22T16:17:22.205Z,18.60
2023-04-22T16:19:49.200Z,18.70
2023-04-22T16:22:15.984Z,18.70
2023-04-22T16:24:44.398Z,18.80
2023-04-22T16:27:16.253Z,19.00
2023-04-22T16:29:43.760Z,19.50
2023-04-22T16:32:10.947Z,19.80
2023-04-22T16:34:38.430Z,20.20
2023-04-22T16:37:05.601Z,20.40
2023-04-22T16:39:32.824Z,20.50
2023-04-22T16:41:59.823Z,20.60
2023-04-22T16:44:26.743Z,20.60
2023-04-22T16:46:53.476Z,20.50
2023-04-22T16:49:20.379Z,20.40
2023-04-22T16:51:47.260Z,20.10
2023-04-22T16:54:13.979Z,19.90
2023-04-22T16:56:40.725Z,19.80
2023-04-22T16:59:07.495Z,19.70
2023-04-22T17:01:34.469Z,19.60
2023-04-22T17:04:01.585Z,19.80
2023-04-22T17:06:28.701Z,20.10
2023-04-22T17:08:55.572Z,20.40
2023-04-22T17:11:23.975Z,20.60
2023-04-22T17:13:51.333Z,20.90
2023-04-22T17:16:18.068Z,21.10
2023-04-22T17:18:44.940Z,21.10
2023-04-22T17:21:11.894Z,21.00
2023-04-22T17:23:39.050Z,20.90
2023-04-22T17:26:06.213Z,20.60
2023-04-22T17:28:33.033Z,20.30
2023-04-22T17:31:00.139Z,20.20
2023-04-22T17:33:26.944Z,20.00
2023-04-22T17:35:53.795Z,19.90
2023-04-22T17:38:20.629Z,19.80
2023-04-22T17:40:47.967Z,19.80
2023-04-22T17:43:14.809Z,19.80
2023-04-22T17:45:41.530Z,20.00
2023-04-22T17:48:08.469Z,20.30
2023-04-22T17:50:35.458Z,20.50
2023-04-22T17:53:02.275Z,20.80
2023-04-22T17:55:30.250Z,21.10
2023-04-22T17:57:57.349Z,21.20
2023-04-22T18:00:24.120Z,21.30
2023-04-22T18:02:51.209Z,21.40
2023-04-22T18:05:18.632Z,21.30
2023-04-22T18:07:45.347Z,21.20
2023-04-22T18:10:12.593Z,20.90
2023-04-22T18:12:40.109Z,20.60
2023-04-22T18:15:07.328Z,20.40
2023-04-22T18:17:34.126Z,20.20
2023-04-22T18:20:13.980Z,20.10
2023-04-22T18:22:44.701Z,20.00
2023-04-22T18:25:11.622Z,20.00
2023-04-22T18:27:38.356Z,19.90
2023-04-22T18:30:05.475Z,19.90
2023-04-22T18:32:32.332Z,19.90
2023-04-22T18:34:59.202Z,20.20
2023-04-22T18:37:29.627Z,20.40
2023-04-22T18:39:56.998Z,20.70
2023-04-22T18:42:23.988Z,20.90
2023-04-22T18:44:50.903Z,21.00
2023-04-22T18:47:17.702Z,21.10
2023-04-22T18:49:45.360Z,21.20
2023-04-22T18:52:12.420Z,21.30
2023-04-22T18:54:39.446Z,21.30
2023-04-22T18:57:06.953Z,21.10
2023-04-22T18:59:33.922Z,20.90
2023-04-22T19:02:00.944Z,20.70
2023-04-22T19:04:27.777Z,20.50
2023-04-22T19:06:57.013Z,20.40
2023-04-22T19:09:23.983Z,20.20
2023-04-22T19:11:50.807Z,20.20
2023-04-22T19:14:17.591Z,20.10
2023-04-22T19:16:44.404Z,20.10
2023-04-22T19:19:12.185Z,20.30
2023-04-22T19:21:39.336Z,20.70
2023-04-22T19:24:06.788Z,20.90
2023-04-22T19:26:33.701Z,21.20
2023-04-22T19:29:00.386Z,21.30
2023-04-22T19:31:30.230Z,21.30
2023-04-22T19:33:57.249Z,21.30
2023-04-22T19:36:23.979Z,21.00
2023-04-22T19:38:50.846Z,20.90
2023-04-22T19:41:17.643Z,20.60
2023-04-22T19:43:44.461Z,20.50
2023-04-22T19:46:11.860Z,20.40
2023-04-22T19:48:38.745Z,20.30
2023-04-22T19:51:06.196Z,20.20
2023-04-22T19:53:33.268Z,20.10
2023-04-22T19:56:00.057Z,20.10
2023-04-22T19:58:28.715Z,20.00
2023-04-22T20:00:56.200Z,20.00
2023-04-22T20:03:23.561Z,19.90
2023-04-22T20:05:50.858Z,19.90
2023-04-22T20:08:24.037Z,19.80
2023-04-22T20:10:50.779Z,19.80
2023-04-22T20:13:17.627Z,19.80
2023-04-22T20:15:45.000Z,19.80
2023-04-22T20:18:12.158Z,19.70
2023-04-22T20:20:46.142Z,19.70
2023-04-22T20:23:14.340Z,19.70
2023-04-22T20:25:44.155Z,19.70
2023-04-22T20:28:11.139Z,19.70
2023-04-22T20:30:38.063Z,19.70
2023-04-22T20:33:04.968Z,19.60
2023-04-22T20:35:32.181Z,19.60
2023-04-22T20:37:59.340Z,19.60
2023-04-22T20:40:26.663Z,19.50
2023-04-22T20:42:55.593Z,19.50
2023-04-22T20:45:22.377Z,19.50
2023-04-22T20:47:49.114Z,19.50
2023-04-22T20:50:16.147Z,19.50
2023-04-22T20:52:43.359Z,19.40
2023-04-22T20:55:10.255Z,19.40
2023-04-22T20:57:37.725Z,19.40
2023-04-22T21:00:07.089Z,19.40
2023-04-22T21:02:35.379Z,19.40
2023-04-22T21:05:02.828Z,19.30
2023-04-22T21:07:30.823Z,19.40
2023-04-22T21:09:57.762Z,19.30
2023-04-22T21:12:24.794Z,19.30
2023-04-22T21:14:51.654Z,19.30
2023-04-22T21:17:25.704Z,19.30
2023-04-22T21:19:53.473Z,19.20
2023-04-22T21:22:24.018Z,19.20
2023-04-22T21:24:51.658Z,19.20
2023-04-22T21:27:18.886Z,19.20
2023-04-22T21:29:46.659Z,19.20
2023-04-22T21:32:13.853Z,19.20
2023-04-22T21:34:40.917Z,19.20
2023-04-22T21:37:08.277Z,19.20
2023-04-22T21:39:35.393Z,19.20
2023-04-22T21:42:08.061Z,19.20
2023-04-22T21:44:36.513Z,19.20
2023-04-22T21:47:03.580Z,19.20
2023-04-22T21:49:30.324Z,19.10
2023-04-22T21:51:57.244Z,19.10
2023-04-22T21:54:23.950Z,19.10
2023-04-22T21:56:50.902Z,19.10
2023-04-22T21:59:17.832Z,19.10
2023-04-22T22:01:44.651Z,19.10
2023-04-22T22:04:13.939Z,19.10
2023-04-22T22:06:42.525Z,19.10
2023-04-22T22:09:09.383Z,19.10
2023-04-22T22:11:36.168Z,19.10
2023-04-22T22:14:03.038Z,19.10
2023-04-22T22:16:31.023Z,19.10
2023-04-22T22:18:58.420Z,19.10
2023-04-22T22:21:25.370Z,19.00
2023-04-22T22:23:52.172Z,19.10
2023-04-22T22:26:19.209Z,19.10
2023-04-22T22:28:45.965Z,19.10
2023-04-22T22:31:12.732Z,19.10
2023-04-22T22:33:39.615Z,19.00
2023-04-22T22:36:06.657Z,19.00
2023-04-22T22:38:33.372Z,19.00
2023-04-22T22:41:00.157Z,19.00
2023-04-22T22:43:27.067Z,19.00
2023-04-22T22:45:53.865Z,19.00
2023-04-22T22:48:20.594Z,19.00
2023-04-22T22:50:47.608Z,19.00
2023-04-22T22:53:14.316Z,19.00
2023-04-22T22:55:41.013Z,19.00
2023-04-22T22:58:07.808Z,19.00
2023-04-22T23:00:34.577Z,19.00
2023-04-22T23:03:01.623Z,19.00
2023-04-22T23:05:28.531Z,18.90
2023-04-22T23:07:55.245Z,19.00
2023-04-22T23:10:22.022Z,19.00
2023-04-22T23:12:48.860Z,19.00
2023-04-22T23:15:15.639Z,18.90
2023-04-22T23:17:42.585Z,19.00
2023-04-22T23:20:10.791Z,19.00
2023-04-22T23:22:38.936Z,19.00
2023-04-22T23:25:06.656Z,18.90
2023-04-22T23:27:33.594Z,18.90
2023-04-22T23:30:00.428Z,18.90
2023-04-22T23:32:27.883Z,18.90
2023-04-22T23:34:55.647Z,18.90
2023-04-22T23:37:24.867Z,18.90
2023-04-22T23:39:51.667Z,18.90
2023-04-22T23:42:18.458Z,18.90
2023-04-22T23:44:45.206Z,18.90
2023-04-22T23:47:12.838Z,18.90
2023-04-22T23:49:39.617Z,18.90
2023-04-22T23:52:07.068Z,18.90
2023-04-22T23:54:33.993Z,18.90
2023-04-22T23:57:01.157Z,18.90
2023-04-22T23:59:27.975Z,18.90
